Time;durP1;ratioP1;P1;durP2;ratioP2;P2;SDS_P1;SDS_P2;PMS_P1;PMS_P2;Temp;Humidity;BMP_temperature;BMP_pressure;BME280_temperature;BME280_humidity;BME280_pressure;Samples;Min_cycle;Max_cycle;Signal;HPM_P1;HPM_P2
2022/08/23 00:01:12;;;;;;;15.93;10.13;;;;;;;;;;5032591;28;20037;-78
2022/08/23 00:03:38;;;;;;;14.77;9.88;;;;;;;;;;5015767;28;20033;-77
2022/08/23 00:06:05;;;;;;;13.90;10.23;;;;;;;;;;5031781;28;20458;-79
2022/08/23 00:08:30;;;;;;;14.70;8.85;;;;;;;;;;5031778;28;20028;-78
2022/08/23 00:10:57;;;;;;;14.07;9.25;;;;;;;;;;5048433;28;20493;-78
2022/08/23 00:13:22;;;;;;;16.38;10.57;;;;;;;;;;5031873;28;20428;-78
2022/08/23 00:15:48;;;;;;;15.38;11.23;;;;;;;;;;5033025;28;20033;-78
2022/08/23 00:18:15;;;;;;;22.20;11.45;;;;;;;;;;5032734;28;20068;-78
2022/08/23 00:20:40;;;;;;;21.33;11.15;;;;;;;;;;5032734;28;20033;-78
2022/08/23 00:23:06;;;;;;;21.67;12.23;;;;;;;;;;5032400;28;20025;-79
2022/08/23 00:25:31;;;;;;;21.33;11.43;;;;;;;;;;5030420;28;20037;-77
2022/08/23 00:27:57;;;;;;;17.80;10.93;;;;;;;;;;5031477;28;20059;-79
2022/08/23 00:30:22;;;;;;;17.85;12.27;;;;;;;;;;5031814;28;20014;-80
2022/08/23 00:32:48;;;;;;;15.75;11.30;;;;;;;;;;5032871;28;20087;-78
2022/08/23 00:35:15;;;;;;;18.05;11.73;;;;;;;;;;5033110;28;20095;-82
2022/08/23 00:37:41;;;;;;;19.52;10.77;;;;;;;;;;5030832;28;20036;-79
2022/08/23 00:40:10;;;;;;;16.52;11.30;;;;;;;;;;5031299;28;20029;-79
2022/08/23 00:48:37;;;;;;;17.48;9.88;;;;;;;;;;5032072;28;20040;-78
2022/08/23 00:51:26;;;;;;;18.10;10.68;;;;;;;;;;5032317;28;20041;-79
2022/08/23 00:54:00;;;;;;;15.10;10.25;;;;;;;;;;5032045;28;20052;-78
2022/08/23 00:56:29;;;;;;;15.75;9.57;;;;;;;;;;5030981;28;20029;-79
2022/08/23 00:58:55;;;;;;;17.55;10.15;;;;;;;;;;5030709;28;20040;-78
2022/08/23 01:01:22;;;;;;;14.13;9.52;;;;;;;;;;5032460;28;20081;-78
2022/08/23 01:03:54;;;;;;;16.08;9.85;;;;;;;;;;5032915;28;20025;-79
2022/08/23 01:06:33;;;;;;;14.80;9.30;;;;;;;;;;5032644;28;20021;-79
2022/08/23 01:09:05;;;;;;;13.02;9.55;;;;;;;;;;5032620;28;20040;-79
2022/08/23 01:11:39;;;;;;;17.38;10.43;;;;;;;;;;5032291;28;20437;-79
2022/08/23 01:14:12;;;;;;;16.45;10.25;;;;;;;;;;5033370;28;20021;-78
2022/08/23 01:17:00;;;;;;;17.27;10.45;;;;;;;;;;5036044;28;20025;-79
2022/08/23 01:19:34;;;;;;;16.73;9.35;;;;;;;;;;5034347;28;20021;-79
2022/08/23 01:22:18;;;;;;;18.33;9.15;;;;;;;;;;5036141;28;20056;-77
2022/08/23 01:24:45;;;;;;;13.35;8.73;;;;;;;;;;5035593;28;20053;-78
2022/08/23 01:27:12;;;;;;;16.80;9.07;;;;;;;;;;5036126;28;20048;-78
2022/08/23 01:29:39;;;;;;;13.85;8.65;;;;;;;;;;5037741;28;20021;-79
2022/08/23 01:32:07;;;;;;;10.98;7.68;;;;;;;;;;5035700;28;20045;-79
2022/08/23 01:34:35;;;;;;;11.65;7.68;;;;;;;;;;5035553;28;20037;-77
2022/08/23 01:37:02;;;;;;;10.70;7.32;;;;;;;;;;5034512;28;20029;-78
2022/08/23 01:39:28;;;;;;;11.85;7.63;;;;;;;;;;5035618;28;20362;-79
2022/08/23 01:41:54;;;;;;;11.02;7.35;;;;;;;;;;5036064;28;20033;-78
2022/08/23 01:44:19;;;;;;;12.90;8.10;;;;;;;;;;5035505;28;20498;-78
2022/08/23 01:46:46;;;;;;;15.73;7.55;;;;;;;;;;5034202;28;20025;-78
2022/08/23 01:49:12;;;;;;;14.18;7.38;;;;;;;;;;5035712;28;20021;-79
2022/08/23 01:51:37;;;;;;;8.93;6.82;;;;;;;;;;5034378;28;20033;-78
2022/08/23 01:54:03;;;;;;;8.88;7.47;;;;;;;;;;5035629;28;20029;-78
2022/08/23 01:56:31;;;;;;;15.90;7.68;;;;;;;;;;5035682;28;20156;-78
2022/08/23 01:58:57;;;;;;;10.60;7.00;;;;;;;;;;5035368;28;20374;-77
2022/08/23 02:01:23;;;;;;;9.13;6.93;;;;;;;;;;5034040;28;20109;-78
2022/08/23 02:03:48;;;;;;;7.88;5.93;;;;;;;;;;5034162;28;20029;-77
2022/08/23 02:06:14;;;;;;;13.10;7.50;;;;;;;;;;5035347;28;20030;-79
2022/08/23 02:11:26;;;;;;;9.20;6.40;;;;;;;;;;5036204;28;20117;-79
2022/08/23 02:13:54;;;;;;;8.60;6.28;;;;;;;;;;5033935;28;20053;-78
2022/08/23 02:16:34;;;;;;;10.63;6.15;;;;;;;;;;5033505;28;20026;-78
2022/08/23 02:19:03;;;;;;;10.90;6.38;;;;;;;;;;5034561;28;20029;-79
2022/08/23 02:21:32;;;;;;;9.93;6.82;;;;;;;;;;5035400;28;20010;-79
2022/08/23 02:24:02;;;;;;;9.45;6.32;;;;;;;;;;5033171;28;20076;-79
2022/08/23 02:26:27;;;;;;;10.05;7.20;;;;;;;;;;5034818;28;20021;-78
2022/08/23 02:28:53;;;;;;;9.45;6.63;;;;;;;;;;5032852;28;20028;-78
2022/08/23 02:31:20;;;;;;;12.02;6.95;;;;;;;;;;5033323;28;20101;-78
2022/08/23 02:33:47;;;;;;;11.30;6.50;;;;;;;;;;5032992;28;20362;-78
2022/08/23 02:36:13;;;;;;;10.75;6.70;;;;;;;;;;5034152;28;20381;-77
2022/08/23 02:38:39;;;;;;;9.13;6.60;;;;;;;;;;5032741;28;20477;-78
2022/08/23 02:41:05;;;;;;;9.13;7.15;;;;;;;;;;5034179;28;20026;-78
2022/08/23 02:43:30;;;;;;;10.43;7.60;;;;;;;;;;5033167;28;20112;-78
2022/08/23 02:45:56;;;;;;;9.93;7.78;;;;;;;;;;5034846;28;20492;-78
2022/08/23 02:48:21;;;;;;;10.25;7.93;;;;;;;;;;5034319;28;20041;-79
2022/08/23 02:50:48;;;;;;;21.67;14.85;;;;;;;;;;5034804;28;20032;-79
2022/08/23 02:53:15;;;;;;;13.52;8.68;;;;;;;;;;5033495;28;20065;-77
2022/08/23 02:55:45;;;;;;;12.07;8.38;;;;;;;;;;5035044;28;20032;-78
2022/08/23 02:58:10;;;;;;;13.63;8.93;;;;;;;;;;5034612;28;20029;-78
2022/08/23 03:00:37;;;;;;;14.00;9.10;;;;;;;;;;5033836;28;20025;-79
2022/08/23 03:03:04;;;;;;;15.13;9.48;;;;;;;;;;5034732;28;20022;-78
2022/08/23 03:05:30;;;;;;;15.98;9.75;;;;;;;;;;5033484;28;20021;-79
2022/08/23 03:07:56;;;;;;;11.63;10.05;;;;;;;;;;5033785;28;20165;-78
2022/08/23 03:10:21;;;;;;;14.43;9.95;;;;;;;;;;5034572;28;20021;-78
2022/08/23 03:12:47;;;;;;;15.02;10.32;;;;;;;;;;5034611;28;20025;-77
2022/08/23 03:15:12;;;;;;;14.45;9.48;;;;;;;;;;5033833;28;20036;-79
2022/08/23 03:17:38;;;;;;;13.30;10.00;;;;;;;;;;5033901;28;20056;-78
2022/08/23 03:20:05;;;;;;;16.75;11.38;;;;;;;;;;5033699;28;20056;-78
2022/08/23 03:22:32;;;;;;;16.83;10.57;;;;;;;;;;5016565;28;20048;-79
2022/08/23 03:24:59;;;;;;;14.73;9.77;;;;;;;;;;5033875;28;20050;-78
2022/08/23 03:27:25;;;;;;;18.48;10.43;;;;;;;;;;5048818;28;20033;-79
2022/08/23 03:29:50;;;;;;;16.85;11.07;;;;;;;;;;5032482;28;20068;-78
2022/08/23 03:32:17;;;;;;;17.02;10.65;;;;;;;;;;5033678;28;20261;-78
2022/08/23 03:34:42;;;;;;;15.13;10.50;;;;;;;;;;5033477;28;20481;-78
2022/08/23 03:37:08;;;;;;;16.48;10.30;;;;;;;;;;5032626;28;20083;-79
2022/08/23 03:39:33;;;;;;;15.75;10.68;;;;;;;;;;5033111;28;20029;-78
2022/08/23 03:41:59;;;;;;;17.63;10.60;;;;;;;;;;5033468;28;20033;-79
2022/08/23 03:44:24;;;;;;;15.25;10.65;;;;;;;;;;5031842;28;20064;-78
2022/08/23 03:46:50;;;;;;;17.45;12.15;;;;;;;;;;5031700;28;20029;-78
2022/08/23 03:49:15;;;;;;;18.75;11.27;;;;;;;;;;5033295;28;20055;-80
2022/08/23 03:51:41;;;;;;;17.17;12.60;;;;;;;;;;5032319;28;20033;-78
2022/08/23 03:54:07;;;;;;;18.58;11.85;;;;;;;;;;5031801;28;20037;-76
2022/08/23 03:56:37;;;;;;;18.83;12.05;;;;;;;;;;5032451;28;20071;-79
2022/08/23 03:59:09;;;;;;;18.65;12.68;;;;;;;;;;5032002;28;20082;-79
2022/08/23 04:01:35;;;;;;;20.42;11.60;;;;;;;;;;5032642;28;20036;-79
2022/08/23 04:04:00;;;;;;;17.42;10.73;;;;;;;;;;5033329;28;20025;-78
2022/08/23 04:06:27;;;;;;;17.95;11.55;;;;;;;;;;5033269;28;20070;-78
2022/08/23 04:08:55;;;;;;;21.17;12.27;;;;;;;;;;5032074;28;20060;-79
2022/08/23 04:11:22;;;;;;;20.63;12.05;;;;;;;;;;5033672;28;20036;-78
2022/08/23 04:13:48;;;;;;;18.88;11.80;;;;;;;;;;5031795;28;20033;-77
2022/08/23 04:16:14;;;;;;;18.95;11.70;;;;;;;;;;5032712;28;20033;-77
2022/08/23 04:18:39;;;;;;;15.93;10.50;;;;;;;;;;5032756;28;20037;-79
2022/08/23 04:21:11;;;;;;;18.35;11.38;;;;;;;;;;5032829;28;20037;-78
2022/08/23 04:23:38;;;;;;;;;;;;;;;;;;5033197;28;20108;-78
2022/08/23 04:26:05;;;;;;;14.93;10.75;;;;;;;;;;5032553;28;19920;-80
2022/08/23 04:28:31;;;;;;;15.80;10.40;;;;;;;;;;5031030;28;20029;-78
2022/08/23 04:30:59;;;;;;;19.70;10.82;;;;;;;;;;5032614;28;20033;-78
2022/08/23 04:33:26;;;;;;;19.17;11.25;;;;;;;;;;5032461;28;20029;-78
2022/08/23 04:35:53;;;;;;;19.02;11.43;;;;;;;;;;5032737;28;20037;-78
2022/08/23 04:38:18;;;;;;;15.55;9.90;;;;;;;;;;5032545;28;20298;-79
2022/08/23 04:43:28;;;;;;;13.48;10.13;;;;;;;;;;5033053;28;20048;-78
2022/08/23 04:45:55;;;;;;;15.20;10.70;;;;;;;;;;5033828;28;20092;-79
2022/08/23 04:48:22;;;;;;;15.30;9.48;;;;;;;;;;5033592;28;20028;-78
2022/08/23 04:50:48;;;;;;;12.52;9.52;;;;;;;;;;5035576;28;20524;-78
2022/08/23 04:53:14;;;;;;;15.52;10.13;;;;;;;;;;5035446;28;20094;-78
2022/08/23 04:55:39;;;;;;;14.52;9.80;;;;;;;;;;5037160;28;20017;-77
2022/08/23 04:58:06;;;;;;;17.38;10.20;;;;;;;;;;5035883;28;20397;-79
2022/08/23 05:00:32;;;;;;;17.17;10.20;;;;;;;;;;5035328;28;20080;-80
2022/08/23 05:02:57;;;;;;;17.88;9.82;;;;;;;;;;5035238;28;20045;-79
2022/08/23 05:05:23;;;;;;;16.33;9.65;;;;;;;;;;5035070;28;20029;-79
2022/08/23 05:07:50;;;;;;;13.30;8.63;;;;;;;;;;5036867;28;20052;-79
2022/08/23 05:10:15;;;;;;;15.45;9.30;;;;;;;;;;5029790;28;20410;-79
2022/08/23 05:12:41;;;;;;;14.40;9.75;;;;;;;;;;5035932;28;20071;-78
2022/08/23 05:15:11;;;;;;;15.65;9.77;;;;;;;;;;5037107;28;20048;-79
2022/08/23 05:17:37;;;;;;;12.75;8.93;;;;;;;;;;5054466;28;20345;-79
2022/08/23 05:20:07;;;;;;;17.10;9.60;;;;;;;;;;5036065;28;20083;-79
2022/08/23 05:22:34;;;;;;;17.83;10.40;;;;;;;;;;5051947;28;20079;-79
2022/08/23 05:25:00;;;;;;;19.35;10.52;;;;;;;;;;5036378;28;20049;-80
2022/08/23 05:27:25;;;;;;;16.27;10.93;;;;;;;;;;5036299;28;20030;-80
2022/08/23 05:29:53;;;;;;;15.73;10.60;;;;;;;;;;5037837;28;20035;-80
2022/08/23 05:32:19;;;;;;;18.45;11.38;;;;;;;;;;5048896;28;20017;-79
2022/08/23 05:34:46;;;;;;;16.70;11.20;;;;;;;;;;5050725;28;20025;-80
2022/08/23 05:37:12;;;;;;;16.55;10.63;;;;;;;;;;5037900;28;20078;-79
2022/08/23 05:39:56;;;;;;;18.42;11.38;;;;;;;;;;5031104;28;20029;-80
2022/08/23 05:42:23;;;;;;;18.13;10.88;;;;;;;;;;5035977;28;20212;-80
2022/08/23 05:44:49;;;;;;;16.30;10.35;;;;;;;;;;5039929;28;20049;-80
2022/08/23 05:47:29;;;;;;;18.27;10.60;;;;;;;;;;5032047;28;20025;-78
2022/08/23 05:49:55;;;;;;;20.38;11.80;;;;;;;;;;5034622;28;20536;-79
2022/08/23 05:52:21;;;;;;;17.60;11.38;;;;;;;;;;5045140;28;20024;-79
2022/08/23 05:54:48;;;;;;;19.63;11.88;;;;;;;;;;5045758;28;20029;-79
2022/08/23 05:57:15;;;;;;;23.75;13.18;;;;;;;;;;5050043;28;20036;-80
2022/08/23 05:59:44;;;;;;;18.25;11.32;;;;;;;;;;5030898;28;20035;-80
2022/08/23 06:02:12;;;;;;;19.63;11.73;;;;;;;;;;5040396;28;20416;-82
2022/08/23 06:04:38;;;;;;;20.67;12.27;;;;;;;;;;5052425;28;20535;-80
2022/08/23 06:07:08;;;;;;;21.45;12.35;;;;;;;;;;5039228;28;20111;-80
2022/08/23 06:09:35;;;;;;;21.30;11.90;;;;;;;;;;5048924;28;20795;-78
2022/08/23 06:12:01;;;;;;;20.80;13.05;;;;;;;;;;5035829;28;20022;-80
2022/08/23 06:14:31;;;;;;;22.35;12.82;;;;;;;;;;5044327;28;20120;-80
2022/08/23 06:17:00;;;;;;;22.42;13.15;;;;;;;;;;5035567;28;20037;-80
2022/08/23 06:19:26;;;;;;;21.95;12.25;;;;;;;;;;5024979;28;20474;-80
2022/08/23 06:21:51;;;;;;;21.63;12.27;;;;;;;;;;5039395;28;20033;-79
2022/08/23 06:24:27;;;;;;;23.92;13.43;;;;;;;;;;5026823;28;20053;-80
2022/08/23 06:26:53;;;;;;;23.63;13.10;;;;;;;;;;5022905;28;20048;-80
2022/08/23 06:29:20;;;;;;;21.15;11.80;;;;;;;;;;5028782;28;20026;-80
2022/08/23 06:31:48;;;;;;;24.63;13.95;;;;;;;;;;5026207;28;20088;-79
2022/08/23 06:34:32;;;;;;;23.02;13.00;;;;;;;;;;5024487;28;20065;-79
2022/08/23 06:37:07;;;;;;;19.00;10.98;;;;;;;;;;5010018;28;20124;-80
2022/08/23 06:39:37;;;;;;;24.42;12.95;;;;;;;;;;5031189;28;20083;-80
2022/08/23 06:42:07;;;;;;;20.02;10.82;;;;;;;;;;5029307;28;20029;-79
2022/08/23 06:44:37;;;;;;;23.80;12.55;;;;;;;;;;5043318;28;20028;-80
2022/08/23 06:47:05;;;;;;;27.48;16.42;;;;;;;;;;5029315;28;20080;-80
2022/08/23 06:49:33;;;;;;;23.02;12.52;;;;;;;;;;5024442;28;20482;-81
2022/08/23 06:52:04;;;;;;;20.38;12.10;;;;;;;;;;5003955;28;20045;-79
2022/08/23 06:54:34;;;;;;;19.65;12.23;;;;;;;;;;5024766;28;20033;-80
2022/08/23 06:57:01;;;;;;;21.23;12.55;;;;;;;;;;5009671;28;20385;-79
2022/08/23 06:59:30;;;;;;;20.45;12.32;;;;;;;;;;5029259;28;20523;-79
2022/08/23 07:02:02;;;;;;;21.73;12.32;;;;;;;;;;5026617;28;20037;-80
2022/08/23 07:04:52;;;;;;;15.90;10.27;;;;;;;;;;5019246;28;20048;-79
2022/08/23 07:07:18;;;;;;;20.02;10.80;;;;;;;;;;5041301;28;20052;-80
2022/08/23 07:09:44;;;;;;;18.90;10.60;;;;;;;;;;5025257;28;20042;-77
2022/08/23 07:12:10;;;;;;;18.10;10.07;;;;;;;;;;5026187;28;20037;-78
2022/08/23 07:14:36;;;;;;;17.23;10.02;;;;;;;;;;5024198;28;20041;-79
2022/08/23 07:17:11;;;;;;;17.77;9.93;;;;;;;;;;5026318;28;20117;-80
2022/08/23 07:19:37;;;;;;;18.08;9.25;;;;;;;;;;5027481;28;20223;-79
2022/08/23 07:22:04;;;;;;;22.35;11.20;;;;;;;;;;5024862;28;20032;-80
2022/08/23 07:24:34;;;;;;;17.73;9.80;;;;;;;;;;5042010;28;20460;-78
2022/08/23 07:27:05;;;;;;;15.15;9.98;;;;;;;;;;5019772;28;20034;-79
2022/08/23 07:29:32;;;;;;;17.15;8.93;;;;;;;;;;5039819;28;20037;-79
2022/08/23 07:31:58;;;;;;;20.77;10.55;;;;;;;;;;5030827;28;20037;-79
2022/08/23 07:34:24;;;;;;;23.35;10.88;;;;;;;;;;5026326;28;20543;-78
2022/08/23 07:36:52;;;;;;;18.67;11.60;;;;;;;;;;5024776;28;20523;-78
2022/08/23 07:39:19;;;;;;;19.58;10.93;;;;;;;;;;5026374;28;20025;-77
2022/08/23 07:41:45;;;;;;;19.05;11.68;;;;;;;;;;5024654;28;20477;-79
2022/08/23 07:44:13;;;;;;;21.50;12.98;;;;;;;;;;5024369;28;20025;-78
2022/08/23 07:46:54;;;;;;;20.20;12.32;;;;;;;;;;5019820;28;20044;-80
2022/08/23 07:49:21;;;;;;;25.00;13.90;;;;;;;;;;5034800;28;20029;-78
2022/08/23 07:51:50;;;;;;;27.35;14.13;;;;;;;;;;5039649;28;20267;-80
2022/08/23 07:54:18;;;;;;;28.23;14.23;;;;;;;;;;5024882;28;20545;-79
2022/08/23 07:56:44;;;;;;;26.73;14.05;;;;;;;;;;5023056;28;20505;-79
2022/08/23 07:59:10;;;;;;;23.13;14.75;;;;;;;;;;5028508;28;20025;-78
2022/08/23 08:01:37;;;;;;;28.60;14.55;;;;;;;;;;5023701;28;20572;-79
2022/08/23 08:04:05;;;;;;;25.88;14.45;;;;;;;;;;5021390;28;20105;-79
2022/08/23 08:06:51;;;;;;;32.30;16.40;;;;;;;;;;5021609;28;20037;-81
2022/08/23 08:09:19;;;;;;;33.50;14.93;;;;;;;;;;5026392;28;20032;-80
2022/08/23 08:11:46;;;;;;;28.02;14.82;;;;;;;;;;5035304;28;20401;-81
2022/08/23 08:14:15;;;;;;;26.83;14.93;;;;;;;;;;5023633;28;20029;-79
2022/08/23 08:16:57;;;;;;;31.30;15.88;;;;;;;;;;5022183;28;20025;-78
2022/08/23 08:19:22;;;;;;;25.80;14.57;;;;;;;;;;5026730;28;20025;-78
2022/08/23 08:21:48;;;;;;;29.75;15.30;;;;;;;;;;5022079;28;20060;-79
2022/08/23 08:24:16;;;;;;;27.73;15.15;;;;;;;;;;5025221;28;20087;-79
2022/08/23 08:26:43;;;;;;;24.73;14.50;;;;;;;;;;5033481;28;20489;-77
2022/08/23 08:29:10;;;;;;;32.85;15.95;;;;;;;;;;5024311;28;20053;-78
2022/08/23 08:31:38;;;;;;;27.13;15.98;;;;;;;;;;5026426;28;20122;-79
2022/08/23 08:34:05;;;;;;;28.83;15.88;;;;;;;;;;5024932;28;20034;-81
2022/08/23 08:36:30;;;;;;;29.88;16.05;;;;;;;;;;5040213;28;20028;-79
2022/08/23 08:38:58;;;;;;;26.92;15.13;;;;;;;;;;5027645;28;20029;-80
2022/08/23 08:41:52;;;;;;;38.90;18.77;;;;;;;;;;5045835;28;20025;-78
2022/08/23 08:44:31;;;;;;;31.33;16.40;;;;;;;;;;5021265;28;20128;-78
2022/08/23 08:46:57;;;;;;;26.67;16.13;;;;;;;;;;5020889;28;20030;-80
2022/08/23 08:49:32;;;;;;;27.95;15.77;;;;;;;;;;5023020;28;20496;-79
2022/08/23 08:52:23;;;;;;;31.83;16.38;;;;;;;;;;5021683;28;20037;-78
2022/08/23 08:54:54;;;;;;;26.20;16.38;;;;;;;;;;5022238;28;20056;-78
2022/08/23 08:57:24;;;;;;;27.92;17.27;;;;;;;;;;5034618;28;20041;-79
2022/08/23 09:00:04;;;;;;;33.00;17.15;;;;;;;;;;5025243;28;20030;-79
2022/08/23 09:02:33;;;;;;;31.15;16.75;;;;;;;;;;5024716;28;20045;-79
2022/08/23 09:05:08;;;;;;;28.50;16.10;;;;;;;;;;5023138;28;20715;-79
2022/08/23 09:07:55;;;;;;;31.55;17.83;;;;;;;;;;5036849;28;20025;-79
2022/08/23 09:10:59;;;;;;;31.77;17.48;;;;;;;;;;5024225;28;20076;-78
2022/08/23 09:13:58;;;;;;;29.73;16.48;;;;;;;;;;5025932;28;20045;-79
2022/08/23 09:16:23;;;;;;;29.58;17.67;;;;;;;;;;5023722;28;20017;-78
2022/08/23 09:18:50;;;;;;;35.25;17.55;;;;;;;;;;5019760;28;20044;-78
2022/08/23 09:21:16;;;;;;;31.95;16.90;;;;;;;;;;5043656;28;20036;-79
2022/08/23 09:23:48;;;;;;;23.95;15.05;;;;;;;;;;5022452;28;20368;-81
2022/08/23 09:26:24;;;;;;;26.35;14.80;;;;;;;;;;5023029;28;20501;-80
2022/08/23 09:28:52;;;;;;;29.92;14.75;;;;;;;;;;5024585;28;20037;-79
2022/08/23 09:31:42;;;;;;;23.73;13.85;;;;;;;;;;5024454;28;20095;-78
2022/08/23 09:34:10;;;;;;;27.27;15.25;;;;;;;;;;5021288;28;20029;-78
2022/08/23 09:36:37;;;;;;;23.63;14.77;;;;;;;;;;5021304;28;20198;-79
2022/08/23 09:39:06;;;;;;;24.52;14.70;;;;;;;;;;5029070;28;20040;-78
2022/08/23 09:41:38;;;;;;;26.50;16.60;;;;;;;;;;5035586;28;20037;-82
2022/08/23 09:44:15;;;;;;;23.30;16.08;;;;;;;;;;5039223;28;20473;-77
2022/08/23 09:46:41;;;;;;;23.58;15.75;;;;;;;;;;5023998;28;20525;-79
2022/08/23 09:49:28;;;;;;;24.60;14.98;;;;;;;;;;5023269;28;20025;-79
2022/08/23 09:51:58;;;;;;;23.13;15.55;;;;;;;;;;5026217;28;20332;-78
2022/08/23 09:54:35;;;;;;;23.85;14.70;;;;;;;;;;5039170;28;20029;-77
2022/08/23 09:57:08;;;;;;;25.33;15.35;;;;;;;;;;5040873;28;20041;-78
2022/08/23 09:59:46;;;;;;;23.70;15.15;;;;;;;;;;5007305;28;20031;-78
2022/08/23 10:02:35;;;;;;;27.17;17.02;;;;;;;;;;5027876;28;20032;-80
2022/08/23 10:05:16;;;;;;;24.33;15.95;;;;;;;;;;5018621;28;20038;-78
2022/08/23 10:07:59;;;;;;;33.88;21.67;;;;;;;;;;5039960;28;20485;-81
2022/08/23 10:10:34;;;;;;;28.27;18.05;;;;;;;;;;5028110;28;20041;-80
2022/08/23 10:13:01;;;;;;;26.67;17.13;;;;;;;;;;5027576;28;20026;-80
2022/08/23 10:16:05;;;;;;;30.15;17.20;;;;;;;;;;5018070;28;20067;-79
2022/08/23 10:18:50;;;;;;;23.50;16.50;;;;;;;;;;5023062;28;20029;-77
2022/08/23 10:21:26;;;;;;;23.65;15.18;;;;;;;;;;5023485;28;20017;-81
2022/08/23 10:24:15;;;;;;;18.35;13.15;;;;;;;;;;5023484;28;20585;-81
2022/08/23 10:30:15;;;;;;;21.80;14.15;;;;;;;;;;5022733;28;20059;-80
2022/08/23 10:32:59;;;;;;;22.67;14.20;;;;;;;;;;5028667;28;20036;-80
2022/08/23 10:36:09;;;;;;;22.77;12.95;;;;;;;;;;5031624;28;20037;-79
2022/08/23 10:38:59;;;;;;;20.20;12.95;;;;;;;;;;5042527;28;20033;-80
2022/08/23 10:41:45;;;;;;;18.83;13.27;;;;;;;;;;5030586;28;20529;-80
2022/08/23 10:44:33;;;;;;;20.88;15.20;;;;;;;;;;5027347;28;20033;-79
2022/08/23 10:47:44;;;;;;;17.45;11.75;;;;;;;;;;5041776;28;20040;-80
2022/08/23 10:50:19;;;;;;;21.90;12.27;;;;;;;;;;4982404;28;20112;-78
2022/08/23 10:53:13;;;;;;;24.88;12.25;;;;;;;;;;5026724;28;20029;-78
2022/08/23 10:56:15;;;;;;;17.67;11.70;;;;;;;;;;5017671;28;20045;-78
2022/08/23 10:58:47;;;;;;;17.27;12.25;;;;;;;;;;5037804;28;20078;-78
2022/08/23 11:01:16;;;;;;;21.83;12.25;;;;;;;;;;5024525;28;20029;-77
2022/08/23 11:03:49;;;;;;;16.27;11.15;;;;;;;;;;5026272;28;20033;-77
2022/08/23 11:06:36;;;;;;;17.63;11.82;;;;;;;;;;5018644;28;20071;-78
2022/08/23 11:09:28;;;;;;;17.33;11.48;;;;;;;;;;5023788;28;20041;-80
2022/08/23 11:12:12;;;;;;;;;;;;;;;;;;5028414;28;20698;-80
2022/08/23 11:15:02;;;;;;;17.58;12.15;;;;;;;;;;5022075;28;20408;-79
2022/08/23 11:17:43;;;;;;;18.17;12.57;;;;;;;;;;5027263;28;20033;-80
2022/08/23 11:20:13;;;;;;;19.23;13.03;;;;;;;;;;5025573;28;20024;-80
2022/08/23 11:23:02;;;;;;;18.48;13.05;;;;;;;;;;5038226;28;20087;-80
2022/08/23 11:25:28;;;;;;;17.20;12.63;;;;;;;;;;5022740;28;20140;-82
2022/08/23 11:28:37;;;;;;;25.52;16.52;;;;;;;;;;5027041;28;20148;-80
2022/08/23 11:31:33;;;;;;;19.60;13.35;;;;;;;;;;5005305;28;20060;-78
2022/08/23 11:34:28;;;;;;;19.42;12.55;;;;;;;;;;5025391;28;20085;-78
2022/08/23 11:37:22;;;;;;;20.52;13.52;;;;;;;;;;5022457;28;20041;-80
2022/08/23 11:39:56;;;;;;;19.85;13.57;;;;;;;;;;5026380;28;20041;-78
2022/08/23 11:42:32;;;;;;;22.70;13.32;;;;;;;;;;5027914;28;20116;-80
2022/08/23 11:44:59;;;;;;;19.33;12.98;;;;;;;;;;5021152;28;20033;-79
2022/08/23 11:47:46;;;;;;;21.08;14.52;;;;;;;;;;5036858;28;20041;-79
2022/08/23 11:50:31;;;;;;;18.98;13.18;;;;;;;;;;5024196;28;20045;-78
2022/08/23 11:53:20;;;;;;;25.17;13.65;;;;;;;;;;5023207;28;20037;-80
2022/08/23 11:55:56;;;;;;;22.30;13.10;;;;;;;;;;5031331;28;20029;-79
2022/08/23 11:58:41;;;;;;;21.20;14.98;;;;;;;;;;5037456;28;20038;-79
2022/08/23 12:01:08;;;;;;;22.40;13.32;;;;;;;;;;5025506;28;20029;-80
2022/08/23 12:03:57;;;;;;;18.02;12.65;;;;;;;;;;5024046;28;20127;-78
2022/08/23 12:06:24;;;;;;;23.27;14.32;;;;;;;;;;5013977;28;20059;-77
2022/08/23 12:09:00;;;;;;;18.40;13.13;;;;;;;;;;5024637;28;20029;-78
2022/08/23 12:11:51;;;;;;;25.50;14.85;;;;;;;;;;5020826;28;20045;-77
2022/08/23 12:14:49;;;;;;;24.05;14.40;;;;;;;;;;5021239;28;20064;-78
2022/08/23 12:17:14;;;;;;;19.95;13.75;;;;;;;;;;5013482;28;20030;-77
2022/08/23 12:19:45;;;;;;;21.00;13.43;;;;;;;;;;5034561;28;20132;-80
2022/08/23 12:22:16;;;;;;;22.42;14.05;;;;;;;;;;5018053;28;20049;-77
2022/08/23 12:24:52;;;;;;;23.33;14.50;;;;;;;;;;5015690;28;20073;-79
2022/08/23 12:27:42;;;;;;;23.65;14.05;;;;;;;;;;5030754;28;20314;-77
2022/08/23 12:30:43;;;;;;;17.63;12.38;;;;;;;;;;5023195;28;20120;-76
2022/08/23 12:33:25;;;;;;;22.13;13.18;;;;;;;;;;5021439;28;20052;-78
2022/08/23 12:35:56;;;;;;;;;;;;;;;;;;5017645;28;20187;-77
2022/08/23 12:39:00;;;;;;;26.27;15.20;;;;;;;;;;5026442;28;19921;-81
2022/08/23 12:41:27;;;;;;;22.77;13.65;;;;;;;;;;5024160;28;20544;-81
2022/08/23 12:44:06;;;;;;;20.13;13.40;;;;;;;;;;5022880;28;20025;-81
2022/08/23 12:46:44;;;;;;;21.38;13.00;;;;;;;;;;5035335;28;20087;-79
2022/08/23 12:49:27;;;;;;;21.50;12.85;;;;;;;;;;5025619;28;20477;-81
2022/08/23 12:51:55;;;;;;;27.92;13.45;;;;;;;;;;5040485;28;20033;-79
2022/08/23 12:54:56;;;;;;;26.23;13.88;;;;;;;;;;5022709;28;20469;-79
2022/08/23 12:57:36;;;;;;;22.02;14.15;;;;;;;;;;5025287;28;20443;-82
2022/08/23 13:00:14;;;;;;;20.92;13.82;;;;;;;;;;5017480;28;20037;-79
2022/08/23 13:02:59;;;;;;;24.13;13.40;;;;;;;;;;5023288;28;20044;-77
2022/08/23 13:05:25;;;;;;;21.23;14.02;;;;;;;;;;5026797;28;20576;-79
2022/08/23 13:07:52;;;;;;;17.85;13.70;;;;;;;;;;5022606;28;20038;-79
2022/08/23 13:10:18;;;;;;;22.52;14.20;;;;;;;;;;5025635;28;20095;-78
2022/08/23 13:12:43;;;;;;;20.55;14.73;;;;;;;;;;5030665;28;20041;-76
2022/08/23 13:15:10;;;;;;;23.98;14.48;;;;;;;;;;5037586;28;20032;-77
2022/08/23 13:17:42;;;;;;;23.35;14.48;;;;;;;;;;5041181;28;20025;-81
2022/08/23 13:20:08;;;;;;;19.90;13.68;;;;;;;;;;5028100;28;20021;-80
2022/08/23 13:22:38;;;;;;;22.90;14.98;;;;;;;;;;5024487;28;20032;-76
2022/08/23 13:25:08;;;;;;;20.38;12.45;;;;;;;;;;5025430;28;20061;-78
2022/08/23 13:27:44;;;;;;;20.23;13.45;;;;;;;;;;5031263;28;20028;-79
2022/08/23 13:30:12;;;;;;;23.52;14.45;;;;;;;;;;5026834;28;20033;-77
2022/08/23 13:32:45;;;;;;;20.75;12.80;;;;;;;;;;5026520;28;20085;-78
2022/08/23 13:35:44;;;;;;;23.80;13.32;;;;;;;;;;5025030;28;20026;-78
2022/08/23 13:38:13;;;;;;;20.33;12.98;;;;;;;;;;5041262;28;20076;-79
2022/08/23 13:40:42;;;;;;;19.40;12.93;;;;;;;;;;5024413;28;20033;-76
2022/08/23 13:43:13;;;;;;;21.90;13.05;;;;;;;;;;5027003;28;20025;-78
2022/08/23 13:45:54;;;;;;;21.58;14.20;;;;;;;;;;5020885;28;20037;-77
2022/08/23 13:48:29;;;;;;;17.77;12.95;;;;;;;;;;5021447;28;20136;-77
2022/08/23 13:51:26;;;;;;;25.10;14.27;;;;;;;;;;5032425;28;20508;-78
2022/08/23 13:53:53;;;;;;;26.77;14.25;;;;;;;;;;5026782;28;20041;-80
2022/08/23 13:56:42;;;;;;;27.35;14.48;;;;;;;;;;5022141;28;20029;-80
2022/08/23 13:59:18;;;;;;;19.40;13.55;;;;;;;;;;5034571;28;20025;-78
2022/08/23 14:01:44;;;;;;;22.88;14.20;;;;;;;;;;5023442;28;20079;-78
2022/08/23 14:04:10;;;;;;;21.88;13.57;;;;;;;;;;5026337;28;20475;-77
2022/08/23 14:06:35;;;;;;;22.23;14.75;;;;;;;;;;5023539;28;20021;-79
2022/08/23 14:09:05;;;;;;;20.92;13.27;;;;;;;;;;5027060;28;20022;-78
2022/08/23 14:11:32;;;;;;;19.88;13.50;;;;;;;;;;5030352;28;20148;-78
2022/08/23 14:14:00;;;;;;;24.33;13.55;;;;;;;;;;5036252;28;20427;-77
2022/08/23 14:16:36;;;;;;;22.50;13.02;;;;;;;;;;5022553;28;20037;-79
2022/08/23 14:19:08;;;;;;;19.45;12.82;;;;;;;;;;5025984;28;20021;-78
2022/08/23 14:21:34;;;;;;;17.67;13.07;;;;;;;;;;5038382;28;20386;-78
2022/08/23 14:23:59;;;;;;;30.10;18.20;;;;;;;;;;5028234;28;20022;-78
2022/08/23 14:26:25;;;;;;;21.40;14.43;;;;;;;;;;5024264;28;20590;-79
2022/08/23 14:28:51;;;;;;;19.08;13.30;;;;;;;;;;5027910;28;20435;-77
2022/08/23 14:31:19;;;;;;;20.92;13.68;;;;;;;;;;5023704;28;20025;-77
2022/08/23 14:33:46;;;;;;;20.77;13.15;;;;;;;;;;5023384;28;20045;-77
2022/08/23 14:36:14;;;;;;;26.35;13.52;;;;;;;;;;5026177;28;20021;-78
2022/08/23 14:38:41;;;;;;;18.88;13.80;;;;;;;;;;5033848;28;20439;-80
2022/08/23 14:41:10;;;;;;;19.92;13.10;;;;;;;;;;5024254;28;20426;-76
2022/08/23 14:43:36;;;;;;;19.20;13.38;;;;;;;;;;5040110;28;20116;-78
2022/08/23 14:46:02;;;;;;;26.05;16.13;;;;;;;;;;5023348;28;20109;-78
2022/08/23 14:48:28;;;;;;;22.48;13.50;;;;;;;;;;5037159;28;20053;-77
2022/08/23 14:50:58;;;;;;;22.52;14.93;;;;;;;;;;5025445;28;20033;-78
2022/08/23 14:53:30;;;;;;;20.83;13.20;;;;;;;;;;5038692;28;20045;-78
2022/08/23 14:55:56;;;;;;;22.15;12.77;;;;;;;;;;5028384;28;20057;-80
2022/08/23 14:58:24;;;;;;;22.92;13.95;;;;;;;;;;5028170;28;20033;-77
2022/08/23 15:00:51;;;;;;;25.20;15.55;;;;;;;;;;5038568;28;20526;-77
2022/08/23 15:03:22;;;;;;;21.65;13.60;;;;;;;;;;5026559;28;20143;-77